メインページ
METAR-TAF:

METAR-TAF

空港 :

エルサルバドル, エルサルバドル

エルサルバドル国際空港

緯度: 13-26N, 経度: 089-03W, 海抜: 25m

現時点の気象観測

当レポートは27分前の22:50(UTC)に作成
変向風 2kt
気温 28°C
湿度 74%
気圧 1011 hPa
視程10km以上
高度2300ftの雲はほとんどない

METAR: MSLP 272250Z VRB02KT 9999 FEW023 28/23 Q1010 A2984 NOSIG

時間: 17:17 (23:17 UTC)

予報

当レポートは7時間52分前の15:25(UTC)に作成
予報は27日の 18時(UTC)から 28日の 18時(UTC)まで有効
南/南西の風 8kt
視程10km以上
高度2300ftの雲は散在している
高度3700ftの雲はほとんどない, 積乱雲.
28日の 01時(UTC)から 28日の 04時(UTC)まで一時的に
の風 10kt
視程: 5000m
高度2300ftの千切れ雲あり
高度3300ftの雲は散在している, 積乱雲.
激しい雷雨, 雨
28日の 0500時(UTC)から
北東の風 5kt
視程10km以上
高度6000ftの千切れ雲あり

TAF: MSLP 271525Z 2718/2818 21008KT 9999 SCT023 FEW037CB TX33/2718Z TN24/2812Z TEMPO 2801/2804 09010KT 5000 TSRA BKN023 SCT033CB FM280500 04005KT 9999 BKN060

4,000以上の空港の気象観測と天気予報(METAR報とTAF報)

利用可能な観測所は地図上に黄色い丸と赤い丸で示す。

丸の上にカーソルを重ねると観測所名を参照できる。

次にクリックすると気象観測と天気予報を参照できる。

マップの切り替え:黒色「×」印の緑ボタンをクリックして拡大、「-」印の緑ボタンをクリックして縮小、緑色の三角印をクリックして隣りの地図に切り替え


METAR-TAF: